Fort Mojave, Arizona
Current Conditions -  °F | °C
As of 10:55 AM on Monday 24 Nov 2014 (Local Time) from KHII Reporting Station
Clear Clear  
Wind Chill: 63°   Ceiling: Unl
Heat Index: 63°   Visibility: 10mi
Dew Point: 14°   Wind: 9mph
Humidity: 15%   Direction: 340°NNW
Pressure: 30.31"   Gusts: NA
Location:  34.55°N, 114.35°W
Report Text: KHII 241755Z AUTO 34008KT 10SM CLR 17/M10 A3031 RMK AO2
Loading
Personal Weather Stations






























Interactive Weather Map New forecast layout! Learn more

10-Day Weather Forecast

Advertisements
Track Severe Weather on mobile